Terminal Aerodrome Forecast
Issued by NWS

Home | Current Version | Previous Version | Text Only | Print | Product List | Glossary On
Versions: 1 2 3 4 5 6 7 8 9 10 11 12 13 14 15 16 17 18 19 20 21 22 23 24 25 26 27 28
821
FTUS43 KILX 281514 AAB
TAFDEC
TAF AMD
KDEC 281514Z 2815/2912 19015G21KT P6SM VCSH SCT015 BKN100
      TEMPO 2815/2818 BKN018
     FM281800 19014G22KT P6SM VCSH SCT025 BKN100
     FM282000 19014G22KT P6SM SCT035 BKN120
     FM290200 20011KT P6SM BKN120=

USA.gov is the U.S. government's official web portal to all federal, state and local government web resources and services.